Time;durP1;ratioP1;P1;durP2;ratioP2;P2;SDS_P1;SDS_P2;PMS_P1;PMS_P2;Temp;Humidity;BMP_temperature;BMP_pressure;BME280_temperature;BME280_humidity;BME280_pressure;Samples;Min_cycle;Max_cycle;Signal;HPM_P1;HPM_P2
2021/12/07 00:02:18;;;;;;;45.03;27.30;;;1.30;99.90;;;;;;5056746;28;20461;-61
2021/12/07 00:04:47;;;;;;;43.43;27.07;;;1.30;99.90;;;;;;5056580;28;20497;-63
2021/12/07 00:07:17;;;;;;;45.77;25.80;;;1.30;99.90;;;;;;5047708;28;20467;-63
2021/12/07 00:09:49;;;;;;;44.37;26.23;;;1.30;99.90;;;;;;5055559;28;20467;-63
2021/12/07 00:12:19;;;;;;;46.23;25.17;;;1.20;99.90;;;;;;5054358;28;20485;-62
2021/12/07 00:14:47;;;;;;;42.47;25.93;;;1.30;99.90;;;;;;5058078;28;20476;-63
2021/12/07 00:17:16;;;;;;;43.73;26.23;;;1.30;99.90;;;;;;5051609;28;21068;-63
2021/12/07 00:19:44;;;;;;;43.90;25.77;;;1.30;99.90;;;;;;5055752;28;20465;-62
2021/12/07 00:22:12;;;;;;;42.20;25.47;;;1.30;99.90;;;;;;5052487;28;20503;-63
2021/12/07 00:24:42;;;;;;;43.17;26.03;;;1.30;99.90;;;;;;5059199;28;20554;-62
2021/12/07 00:27:10;;;;;;;47.33;26.90;;;1.30;99.90;;;;;;5058299;28;20496;-63
2021/12/07 00:29:40;;;;;;;45.00;26.30;;;1.30;99.90;;;;;;5059423;28;20735;-63
2021/12/07 00:32:22;;;;;;;45.43;26.43;;;1.30;99.90;;;;;;5052679;28;20482;-63
2021/12/07 00:35:20;;;;;;;43.20;25.37;;;1.30;99.90;;;;;;5049008;28;20895;-63
2021/12/07 00:37:53;;;;;;;47.80;26.20;;;1.30;99.90;;;;;;5048900;28;20474;-63
2021/12/07 00:40:25;;;;;;;43.67;25.60;;;1.30;99.90;;;;;;5060866;28;20513;-62
2021/12/07 00:42:53;;;;;;;48.87;27.43;;;1.30;99.90;;;;;;5052706;28;20740;-62
2021/12/07 00:45:22;;;;;;;41.70;25.23;;;1.30;99.90;;;;;;5053863;28;20977;-62
2021/12/07 00:47:53;;;;;;;44.07;25.43;;;1.20;99.90;;;;;;5052772;28;20475;-63
2021/12/07 00:50:24;;;;;;;45.10;25.53;;;1.20;99.90;;;;;;5057390;28;20538;-63
2021/12/07 00:52:53;;;;;;;46.60;27.27;;;1.20;99.90;;;;;;5053898;28;20467;-62
2021/12/07 00:55:25;;;;;;;40.67;23.17;;;1.20;99.90;;;;;;5055271;28;20513;-62
2021/12/07 00:57:57;;;;;;;44.07;25.90;;;1.20;99.90;;;;;;5046205;28;21025;-63
2021/12/07 01:00:29;;;;;;;43.67;26.33;;;1.30;99.90;;;;;;5073622;28;20562;-61
2021/12/07 01:02:58;;;;;;;44.30;25.00;;;1.20;99.90;;;;;;5052335;28;20833;-63
2021/12/07 01:05:31;;;;;;;45.63;26.33;;;1.20;99.90;;;;;;5053726;28;20486;-62
2021/12/07 01:08:17;;;;;;;42.23;25.23;;;1.20;99.90;;;;;;5056959;28;20479;-62
2021/12/07 01:24:44;;;;;;;40.20;24.37;;;1.20;99.90;;;;;;5055234;28;20862;-63
2021/12/07 01:27:16;;;;;;;42.50;25.23;;;1.20;99.90;;;;;;5049946;28;20830;-63
2021/12/07 01:29:48;;;;;;;43.43;25.87;;;1.20;99.90;;;;;;5048990;28;20505;-62
2021/12/07 01:32:31;;;;;;;42.47;25.10;;;1.20;99.90;;;;;;5045593;28;20477;-62
2021/12/07 01:37:59;;;;;;;42.60;24.17;;;1.20;99.90;;;;;;5030695;28;20466;-63
2021/12/07 01:40:40;;;;;;;39.97;24.43;;;1.20;99.90;;;;;;5061583;28;20489;-63
2021/12/07 01:46:20;;;;;;;43.90;25.40;;;1.20;99.90;;;;;;5043780;28;20587;-63
2021/12/07 01:52:05;;;;;;;38.93;23.43;;;1.20;99.90;;;;;;5052936;28;20478;-63
2021/12/07 02:00:12;;;;;;;45.13;24.33;;;1.20;99.90;;;;;;5041744;28;21017;-63
2021/12/07 02:02:41;;;;;;;41.27;22.57;;;1.20;99.90;;;;;;5065617;28;20469;-62
2021/12/07 02:05:11;;;;;;;41.83;24.30;;;1.20;99.90;;;;;;5057215;28;20483;-62
2021/12/07 02:07:42;;;;;;;41.53;24.53;;;1.30;99.90;;;;;;5053707;28;20491;-62
2021/12/07 02:10:17;;;;;;;42.00;25.20;;;1.20;99.90;;;;;;5058712;28;20489;-62
2021/12/07 02:12:49;;;;;;;42.70;24.73;;;1.30;99.90;;;;;;5053195;28;20480;-63
2021/12/07 02:15:21;;;;;;;40.83;24.23;;;1.30;99.90;;;;;;5060341;28;20895;-62
2021/12/07 02:17:51;;;;;;;41.43;23.37;;;1.30;99.90;;;;;;5050646;28;20990;-63
2021/12/07 02:20:22;;;;;;;41.03;23.93;;;1.30;99.90;;;;;;5051512;28;20486;-63
2021/12/07 02:22:52;;;;;;;38.90;23.87;;;1.30;99.90;;;;;;5058031;28;20509;-62
2021/12/07 02:25:21;;;;;;;39.97;23.60;;;1.40;99.90;;;;;;5055004;28;20536;-63
2021/12/07 02:27:49;;;;;;;41.07;24.43;;;1.30;99.90;;;;;;5072136;28;20467;-63
2021/12/07 02:30:22;;;;;;;44.80;24.43;;;1.40;99.90;;;;;;5059330;28;20471;-63
2021/12/07 02:32:54;;;;;;;42.23;24.37;;;1.30;99.90;;;;;;5058096;28;20492;-63
2021/12/07 02:35:26;;;;;;;39.93;23.13;;;1.40;99.90;;;;;;5059150;28;20470;-63
2021/12/07 02:37:59;;;;;;;44.10;25.17;;;1.40;99.90;;;;;;5056058;28;20503;-63
2021/12/07 02:40:31;;;;;;;42.60;25.47;;;1.40;99.90;;;;;;5065119;28;20474;-62
2021/12/07 02:43:00;;;;;;;41.97;25.07;;;1.40;99.90;;;;;;5057158;28;20494;-62
2021/12/07 02:45:32;;;;;;;41.03;25.03;;;1.40;99.90;;;;;;5054001;28;20474;-62
2021/12/07 02:48:00;;;;;;;41.13;24.13;;;1.40;99.90;;;;;;5048454;28;20481;-62
2021/12/07 02:50:29;;;;;;;43.97;26.20;;;1.50;99.90;;;;;;5056284;28;20554;-63
2021/12/07 02:52:59;;;;;;;41.40;24.60;;;1.40;99.90;;;;;;5049069;28;20478;-63
2021/12/07 02:55:27;;;;;;;41.63;24.43;;;1.40;99.90;;;;;;5060557;28;20484;-62
2021/12/07 02:57:55;;;;;;;41.80;25.50;;;1.40;99.90;;;;;;5052322;28;20485;-63
2021/12/07 03:00:34;;;;;;;41.80;25.10;;;1.40;99.90;;;;;;5060055;28;20515;-63
2021/12/07 03:03:07;;;;;;;43.37;25.03;;;1.40;99.90;;;;;;5054425;28;20459;-63
2021/12/07 03:05:43;;;;;;;42.67;25.53;;;1.40;99.90;;;;;;5057731;28;21058;-63
2021/12/07 03:08:48;;;;;;;44.03;24.97;;;1.40;99.90;;;;;;5051073;28;20470;-62
2021/12/07 03:27:59;;;;;;;40.97;24.43;;;1.50;99.90;;;;;;5053027;28;20826;-63
2021/12/07 03:30:28;;;;;;;45.03;26.00;;;1.50;99.90;;;;;;5051240;28;20845;-62
2021/12/07 03:32:57;;;;;;;41.33;25.07;;;1.40;99.90;;;;;;5054991;28;20829;-63
2021/12/07 03:35:26;;;;;;;44.80;27.00;;;1.40;99.90;;;;;;5051879;28;20497;-62
2021/12/07 03:37:55;;;;;;;42.83;26.17;;;1.40;99.90;;;;;;5053560;28;20481;-63
2021/12/07 03:40:26;;;;;;;43.23;25.80;;;1.50;99.90;;;;;;5059316;28;21007;-62
2021/12/07 03:42:54;;;;;;;45.07;26.90;;;1.40;99.90;;;;;;5052994;28;20852;-63
2021/12/07 03:45:24;;;;;;;44.90;26.03;;;1.40;99.90;;;;;;5052187;28;20569;-62
2021/12/07 03:47:53;;;;;;;41.80;25.30;;;1.40;99.90;;;;;;5054164;28;20463;-63
2021/12/07 03:50:22;;;;;;;40.83;24.43;;;1.40;99.90;;;;;;5076855;28;20466;-62
2021/12/07 03:52:52;;;;;;;45.23;26.10;;;1.40;99.90;;;;;;5050975;28;20585;-62
2021/12/07 03:55:21;;;;;;;47.23;27.67;;;1.40;99.90;;;;;;5057232;28;20543;-63
2021/12/07 03:57:50;;;;;;;43.87;26.03;;;1.40;99.90;;;;;;5055928;28;20506;-61
2021/12/07 04:00:25;;;;;;;45.53;27.50;;;1.40;99.90;;;;;;5052180;28;20466;-62
2021/12/07 04:02:56;;;;;;;46.23;26.83;;;1.40;99.90;;;;;;5054252;28;20832;-62
2021/12/07 04:05:26;;;;;;;46.43;28.03;;;1.40;99.90;;;;;;5051286;28;20548;-62
2021/12/07 04:07:54;;;;;;;43.97;26.90;;;1.40;99.90;;;;;;5052981;28;20467;-62
2021/12/07 04:10:25;;;;;;;48.70;27.47;;;1.40;99.90;;;;;;5058342;28;20512;-63
2021/12/07 04:12:55;;;;;;;46.57;28.27;;;1.40;99.90;;;;;;5053378;28;20473;-61
2021/12/07 04:15:23;;;;;;;53.97;29.93;;;1.50;99.90;;;;;;5054215;28;20474;-63
2021/12/07 04:17:52;;;;;;;49.50;28.50;;;1.40;99.90;;;;;;5051145;28;20478;-63
2021/12/07 04:20:20;;;;;;;50.07;27.57;;;1.40;99.90;;;;;;5059014;28;20981;-63
2021/12/07 04:22:49;;;;;;;48.97;29.07;;;1.50;99.90;;;;;;5052654;28;20477;-62
2021/12/07 04:25:19;;;;;;;49.40;28.53;;;1.40;99.90;;;;;;5052404;28;21077;-62
2021/12/07 04:27:47;;;;;;;50.40;28.90;;;1.40;99.90;;;;;;5057104;28;20485;-63
2021/12/07 04:30:19;;;;;;;49.87;28.80;;;1.40;99.90;;;;;;5052887;28;20591;-62
2021/12/07 04:32:47;;;;;;;45.83;27.37;;;1.40;99.90;;;;;;5058528;28;20477;-62
2021/12/07 04:35:17;;;;;;;47.50;27.53;;;1.40;99.90;;;;;;5054780;28;21018;-62
2021/12/07 04:37:45;;;;;;;49.17;28.83;;;1.40;99.90;;;;;;5058383;28;20480;-63
2021/12/07 04:40:16;;;;;;;50.07;28.20;;;1.40;99.90;;;;;;5058638;28;20466;-62
2021/12/07 04:42:45;;;;;;;50.27;29.43;;;1.40;99.90;;;;;;5053570;28;20565;-62
2021/12/07 04:45:24;;;;;;;51.80;29.87;;;1.40;99.90;;;;;;5060366;28;20474;-60
2021/12/07 04:48:08;;;;;;;49.40;29.13;;;1.40;99.90;;;;;;5049600;28;20582;-62
2021/12/07 04:58:59;;;;;;;54.33;29.77;;;1.40;99.90;;;;;;5056787;28;20572;-63
2021/12/07 05:01:27;;;;;;;49.37;29.23;;;1.40;99.90;;;;;;5052708;28;20513;-63
2021/12/07 05:03:59;;;;;;;54.77;32.30;;;1.40;99.90;;;;;;5056020;28;21055;-63
2021/12/07 05:06:31;;;;;;;60.90;34.17;;;1.40;99.90;;;;;;5052466;28;20564;-62
2021/12/07 05:09:20;;;;;;;64.77;34.63;;;1.40;99.90;;;;;;5054020;28;20500;-63
2021/12/07 05:11:52;;;;;;;59.37;34.90;;;1.40;99.90;;;;;;5047406;28;20878;-63
2021/12/07 05:14:27;;;;;;;59.73;32.10;;;1.30;99.90;;;;;;5056107;28;20512;-61
2021/12/07 05:17:13;;;;;;;51.73;30.43;;;1.30;99.90;;;;;;5053193;28;20556;-62
2021/12/07 05:26:01;;;;;;;53.00;30.67;;;1.30;99.90;;;;;;5060200;28;20557;-62
2021/12/07 05:39:37;;;;;;;52.40;30.47;;;1.40;99.90;;;;;;5053591;28;20995;-60
2021/12/07 05:42:05;;;;;;;50.30;29.57;;;1.40;99.90;;;;;;5045065;28;20460;-62
2021/12/07 05:44:33;;;;;;;52.63;28.37;;;1.40;99.90;;;;;;5053766;28;20471;-62
2021/12/07 05:47:03;;;;;;;48.30;28.33;;;1.50;99.90;;;;;;5051150;28;20478;-63
2021/12/07 05:49:32;;;;;;;51.53;30.10;;;1.50;99.90;;;;;;5046147;28;20493;-63
2021/12/07 05:52:01;;;;;;;54.93;30.10;;;1.50;99.90;;;;;;5051984;28;20575;-63
2021/12/07 05:54:29;;;;;;;52.47;31.10;;;1.60;99.90;;;;;;5053199;28;20672;-63
2021/12/07 05:56:57;;;;;;;49.87;28.47;;;1.60;99.90;;;;;;5056786;28;20471;-63
2021/12/07 05:59:25;;;;;;;50.10;30.37;;;1.50;99.90;;;;;;5055493;28;20572;-62
2021/12/07 06:01:54;;;;;;;51.77;29.70;;;1.50;99.90;;;;;;5045156;28;20466;-63
2021/12/07 06:04:22;;;;;;;52.00;29.73;;;1.60;99.90;;;;;;5051490;28;20474;-63
2021/12/07 06:06:50;;;;;;;51.90;28.90;;;1.60;99.90;;;;;;5049066;28;20468;-62
2021/12/07 06:09:20;;;;;;;47.37;28.10;;;1.50;99.90;;;;;;5053766;28;20889;-63
2021/12/07 06:11:50;;;;;;;48.40;28.47;;;1.60;99.90;;;;;;5054416;28;20462;-63
2021/12/07 06:14:20;;;;;;;47.83;27.03;;;1.60;99.90;;;;;;5044703;28;20568;-63
2021/12/07 06:16:49;;;;;;;51.67;28.70;;;1.60;99.90;;;;;;5047350;28;20890;-63
2021/12/07 06:19:17;;;;;;;46.93;28.23;;;1.60;99.90;;;;;;5048460;28;21001;-63
2021/12/07 06:21:45;;;;;;;51.67;29.07;;;1.50;99.90;;;;;;5046243;28;20890;-62
2021/12/07 06:24:13;;;;;;;48.27;29.07;;;1.50;99.90;;;;;;5053639;28;20474;-62
2021/12/07 06:26:42;;;;;;;48.33;29.33;;;1.50;99.90;;;;;;5051394;28;20557;-62
2021/12/07 06:29:10;;;;;;;51.23;28.77;;;1.60;99.90;;;;;;5041269;28;20912;-63
2021/12/07 06:31:39;;;;;;;56.60;29.53;;;1.60;99.90;;;;;;5047133;28;20494;-62
2021/12/07 06:34:10;;;;;;;53.10;30.10;;;1.60;99.90;;;;;;5053446;28;20474;-63
2021/12/07 06:36:39;;;;;;;51.97;29.07;;;1.60;99.90;;;;;;5047330;28;20479;-63
2021/12/07 06:39:09;;;;;;;50.57;28.40;;;1.60;99.90;;;;;;5040551;28;20564;-62
2021/12/07 06:41:38;;;;;;;52.87;29.33;;;1.60;99.90;;;;;;5044726;28;20484;-62
2021/12/07 06:44:07;;;;;;;55.80;30.07;;;1.60;99.90;;;;;;5052998;28;21086;-62
2021/12/07 06:46:35;;;;;;;52.03;29.23;;;1.60;99.90;;;;;;5049356;28;20489;-62
2021/12/07 06:49:04;;;;;;;54.47;31.77;;;1.60;99.90;;;;;;5054906;28;20565;-62
2021/12/07 06:51:32;;;;;;;53.50;30.67;;;1.60;99.90;;;;;;5054880;28;20478;-62
2021/12/07 06:54:06;;;;;;;51.73;30.80;;;1.60;99.90;;;;;;5057457;28;21038;-62
2021/12/07 06:56:34;;;;;;;51.23;29.77;;;1.60;99.90;;;;;;5059989;28;20474;-61
2021/12/07 06:59:02;;;;;;;53.80;30.70;;;1.60;99.90;;;;;;5057533;28;20477;-62
2021/12/07 07:01:32;;;;;;;58.57;31.53;;;1.70;99.90;;;;;;5059493;28;20568;-62
2021/12/07 07:04:01;;;;;;;54.07;30.60;;;1.60;99.90;;;;;;5054341;28;20837;-62
2021/12/07 07:06:29;;;;;;;55.67;30.93;;;1.60;99.90;;;;;;5058084;28;21087;-62
2021/12/07 07:08:57;;;;;;;56.00;30.30;;;1.60;99.90;;;;;;5057199;28;20469;-62
2021/12/07 07:11:26;;;;;;;51.47;29.40;;;1.50;99.90;;;;;;5053635;28;20538;-62
2021/12/07 07:13:54;;;;;;;54.87;30.07;;;1.50;99.90;;;;;;5062828;28;20485;-62
2021/12/07 07:16:22;;;;;;;53.40;31.43;;;1.60;99.90;;;;;;5059994;28;20490;-62
2021/12/07 07:18:52;;;;;;;56.57;31.63;;;1.50;99.90;;;;;;5050121;28;20477;-60
2021/12/07 07:21:20;;;;;;;55.20;31.07;;;1.50;99.90;;;;;;5057055;28;20557;-62
2021/12/07 07:23:48;;;;;;;54.97;30.27;;;1.60;99.90;;;;;;5052301;28;20557;-62
2021/12/07 07:26:16;;;;;;;56.50;31.57;;;1.60;99.90;;;;;;5045522;28;20465;-62
2021/12/07 07:28:44;;;;;;;54.93;31.33;;;1.60;99.90;;;;;;5050962;28;20559;-62
2021/12/07 07:31:13;;;;;;;60.23;32.40;;;1.60;99.90;;;;;;5056912;28;20466;-60
2021/12/07 07:33:42;;;;;;;53.60;30.60;;;1.60;99.90;;;;;;5044634;28;20535;-62
2021/12/07 07:36:12;;;;;;;57.83;32.00;;;1.60;99.90;;;;;;5058160;28;20481;-62
2021/12/07 07:38:40;;;;;;;59.00;32.17;;;1.60;99.90;;;;;;5048442;28;20843;-62
2021/12/07 07:41:08;;;;;;;57.07;31.67;;;1.60;99.90;;;;;;5056167;28;20983;-62
2021/12/07 07:43:36;;;;;;;53.43;31.47;;;1.60;99.90;;;;;;5052384;28;20596;-62
2021/12/07 07:46:12;;;;;;;56.03;32.00;;;1.70;99.90;;;;;;5051965;28;20574;-62
2021/12/07 07:48:40;;;;;;;56.70;32.73;;;1.60;99.90;;;;;;5060573;28;20471;-61
2021/12/07 07:51:09;;;;;;;57.73;31.53;;;1.60;99.90;;;;;;5056761;28;20488;-62
2021/12/07 07:53:38;;;;;;;59.53;31.57;;;1.60;99.90;;;;;;5049512;28;20837;-61
2021/12/07 07:56:07;;;;;;;54.13;29.97;;;1.60;99.90;;;;;;5055170;28;20466;-62
2021/12/07 07:58:36;;;;;;;57.67;31.63;;;1.60;99.90;;;;;;5052704;28;20498;-62
2021/12/07 08:01:05;;;;;;;62.00;34.03;;;1.60;99.90;;;;;;5048799;28;20834;-62
2021/12/07 08:03:35;;;;;;;58.27;32.50;;;1.60;99.90;;;;;;5053563;28;20471;-62
2021/12/07 08:06:04;;;;;;;55.13;31.43;;;1.60;99.90;;;;;;5062861;28;20474;-62
2021/12/07 08:08:32;;;;;;;58.23;33.33;;;1.60;99.90;;;;;;5053132;28;20517;-62
2021/12/07 08:11:03;;;;;;;58.80;32.87;;;1.60;99.90;;;;;;5060945;28;20848;-61
2021/12/07 08:13:31;;;;;;;59.37;33.27;;;1.70;99.90;;;;;;5047251;28;20475;-62
2021/12/07 08:16:01;;;;;;;58.27;32.73;;;1.70;99.90;;;;;;5056351;28;20515;-62
2021/12/07 08:18:29;;;;;;;60.57;33.93;;;1.70;99.90;;;;;;5053546;28;21221;-62
2021/12/07 08:20:57;;;;;;;52.83;30.77;;;1.70;99.90;;;;;;5054888;28;20478;-62
2021/12/07 08:23:25;;;;;;;56.97;31.83;;;1.70;99.90;;;;;;5051542;28;20474;-62
2021/12/07 08:25:53;;;;;;;57.20;31.80;;;1.70;99.90;;;;;;5055495;28;20537;-62
2021/12/07 08:28:23;;;;;;;57.63;32.43;;;1.70;99.90;;;;;;5052547;28;20475;-62
2021/12/07 08:30:51;;;;;;;54.60;31.47;;;1.70;99.90;;;;;;5057391;28;20474;-62
2021/12/07 08:33:19;;;;;;;54.83;31.27;;;1.70;99.90;;;;;;5053985;28;20477;-63
2021/12/07 08:35:48;;;;;;;55.50;32.23;;;1.70;99.90;;;;;;5057729;28;20558;-62
2021/12/07 08:38:17;;;;;;;59.07;32.53;;;1.70;99.90;;;;;;5055546;28;20547;-62
2021/12/07 08:40:53;;;;;;;54.17;31.20;;;1.70;99.90;;;;;;5050494;28;20494;-62
2021/12/07 08:43:25;;;;;;;55.40;31.57;;;1.80;99.90;;;;;;5050916;28;20505;-62
2021/12/07 08:45:55;;;;;;;55.93;30.77;;;1.80;99.90;;;;;;5055583;28;20919;-62
2021/12/07 08:48:24;;;;;;;56.73;32.27;;;1.80;99.90;;;;;;5049035;28;20476;-62
2021/12/07 08:50:53;;;;;;;55.03;30.40;;;1.70;99.90;;;;;;5051353;28;20506;-62
2021/12/07 08:53:23;;;;;;;54.47;31.33;;;1.70;99.90;;;;;;5048164;28;20856;-62
2021/12/07 09:01:28;;;;;;;53.37;31.17;;;1.80;99.90;;;;;;5052611;28;20758;-62
2021/12/07 09:03:59;;;;;;;60.43;33.40;;;1.80;99.90;;;;;;5054821;28;20994;-62
2021/12/07 09:06:28;;;;;;;55.33;31.50;;;1.90;99.90;;;;;;5051640;28;20485;-62
2021/12/07 09:08:58;;;;;;;55.40;31.53;;;1.80;99.90;;;;;;5051030;28;20479;-62
2021/12/07 09:11:27;;;;;;;57.67;32.70;;;1.90;99.90;;;;;;5059190;28;20474;-62
2021/12/07 09:13:56;;;;;;;52.87;30.33;;;1.90;99.90;;;;;;5048970;28;20466;-62
2021/12/07 09:16:24;;;;;;;54.27;29.50;;;1.90;99.90;;;;;;5046976;28;21065;-62
2021/12/07 09:18:53;;;;;;;55.97;31.30;;;1.90;99.90;;;;;;5043703;28;20563;-62
2021/12/07 09:21:22;;;;;;;57.53;31.93;;;1.90;99.90;;;;;;5052986;28;20513;-62
2021/12/07 09:23:51;;;;;;;63.67;34.63;;;1.90;99.90;;;;;;5052167;28;20529;-62
2021/12/07 09:26:19;;;;;;;60.03;33.20;;;1.90;99.90;;;;;;5049710;28;20478;-62
2021/12/07 09:28:48;;;;;;;61.20;33.73;;;1.90;99.90;;;;;;5056525;28;20482;-62
2021/12/07 09:31:19;;;;;;;59.23;33.10;;;2.00;99.90;;;;;;5048523;28;20489;-62
2021/12/07 09:33:47;;;;;;;57.90;34.27;;;2.00;99.90;;;;;;5053387;28;20528;-62
2021/12/07 09:36:15;;;;;;;61.77;34.33;;;2.00;99.90;;;;;;5055475;28;20993;-62
2021/12/07 09:38:45;;;;;;;55.43;33.20;;;2.00;99.90;;;;;;5057200;28;20506;-62
2021/12/07 09:41:15;;;;;;;57.50;32.93;;;2.00;99.90;;;;;;5047104;28;20476;-62
2021/12/07 09:43:43;;;;;;;57.73;32.57;;;2.00;99.90;;;;;;5044160;28;20431;-62
2021/12/07 09:46:12;;;;;;;60.13;33.03;;;2.00;99.90;;;;;;5057188;28;20568;-62
2021/12/07 09:48:43;;;;;;;58.37;32.53;;;2.00;99.90;;;;;;5042109;28;20522;-62
2021/12/07 09:51:14;;;;;;;55.93;33.03;;;2.00;99.90;;;;;;5052521;28;20476;-62
2021/12/07 09:53:42;;;;;;;54.00;30.23;;;2.00;99.90;;;;;;5047027;28;20504;-62
2021/12/07 09:56:10;;;;;;;54.93;31.60;;;2.10;99.90;;;;;;5050932;28;20477;-62
2021/12/07 09:58:39;;;;;;;53.03;30.37;;;2.10;99.90;;;;;;5052342;28;20573;-63
2021/12/07 10:01:09;;;;;;;49.50;30.07;;;2.10;99.90;;;;;;5050191;28;20502;-62
2021/12/07 10:03:40;;;;;;;52.03;30.83;;;2.10;99.90;;;;;;5037947;28;20479;-62
2021/12/07 10:06:09;;;;;;;51.33;30.70;;;2.10;99.90;;;;;;5055590;28;20493;-62
2021/12/07 10:08:38;;;;;;;52.47;29.33;;;2.10;99.90;;;;;;5044825;28;20474;-62
2021/12/07 10:11:08;;;;;;;52.70;29.90;;;2.20;99.90;;;;;;5048772;28;20471;-62
2021/12/07 10:13:38;;;;;;;53.47;29.67;;;2.20;99.90;;;;;;5050685;28;20740;-62
2021/12/07 10:16:09;;;;;;;53.10;31.27;;;2.20;99.90;;;;;;5050333;28;20601;-62
2021/12/07 10:18:41;;;;;;;52.97;30.80;;;2.20;99.90;;;;;;5044155;28;20570;-62
2021/12/07 10:21:15;;;;;;;50.67;28.63;;;2.20;99.90;;;;;;5057622;28;20494;-61
2021/12/07 10:23:45;;;;;;;54.60;30.63;;;2.20;99.90;;;;;;5042549;28;21086;-62
2021/12/07 10:26:16;;;;;;;54.37;30.93;;;2.20;99.90;;;;;;5050144;28;20479;-60
2021/12/07 10:28:47;;;;;;;53.57;30.77;;;2.10;99.90;;;;;;5041985;28;20495;-62
2021/12/07 10:31:22;;;;;;;53.13;30.67;;;2.20;99.90;;;;;;5041111;28;20567;-61
2021/12/07 10:33:54;;;;;;;53.23;31.13;;;2.20;99.90;;;;;;5043040;28;20481;-62
2021/12/07 10:36:26;;;;;;;50.30;30.80;;;2.20;99.90;;;;;;5048445;28;20567;-62
2021/12/07 10:39:00;;;;;;;52.70;30.70;;;2.20;99.90;;;;;;5042995;28;20594;-61
2021/12/07 10:41:32;;;;;;;53.30;30.53;;;2.20;99.90;;;;;;5048312;28;21063;-62
2021/12/07 10:44:06;;;;;;;55.07;30.80;;;2.20;99.90;;;;;;5045025;28;20837;-62
2021/12/07 10:46:42;;;;;;;53.83;32.27;;;2.20;99.90;;;;;;5047890;28;20557;-62
2021/12/07 10:49:27;;;;;;;56.83;31.73;;;2.20;99.90;;;;;;5052761;28;21017;-62
2021/12/07 10:52:19;;;;;;;49.43;29.23;;;2.20;99.90;;;;;;5035416;28;21079;-63
2021/12/07 10:54:55;;;;;;;52.93;30.50;;;2.30;99.90;;;;;;5058792;28;20475;-63
2021/12/07 10:57:27;;;;;;;59.63;31.17;;;2.30;99.90;;;;;;5048123;28;20557;-62
2021/12/07 11:00:08;;;;;;;53.57;30.10;;;2.30;99.90;;;;;;5048032;28;20471;-63
2021/12/07 11:02:38;;;;;;;51.63;29.30;;;2.30;99.90;;;;;;5046050;28;20494;-63
2021/12/07 11:05:11;;;;;;;58.43;32.00;;;2.30;99.90;;;;;;5046807;28;20519;-63
2021/12/07 11:07:40;;;;;;;52.63;30.07;;;2.30;99.90;;;;;;5043618;28;20549;-62
2021/12/07 11:10:15;;;;;;;55.57;30.30;;;2.30;99.90;;;;;;5054597;28;20486;-62
2021/12/07 11:12:50;;;;;;;56.07;32.37;;;2.30;99.90;;;;;;5051079;28;20555;-62
2021/12/07 11:15:23;;;;;;;57.30;32.30;;;2.30;99.90;;;;;;5047481;28;20586;-62
2021/12/07 11:17:54;;;;;;;59.90;33.07;;;2.30;99.90;;;;;;5044055;28;20480;-61
2021/12/07 11:20:23;;;;;;;52.27;30.10;;;2.40;99.90;;;;;;5043740;28;20511;-62
2021/12/07 11:22:56;;;;;;;56.20;30.20;;;2.40;99.90;;;;;;5045745;28;20886;-62
2021/12/07 11:25:53;;;;;;;54.43;30.33;;;2.40;99.90;;;;;;5047611;28;21559;-62
2021/12/07 11:31:20;;;;;;;53.40;29.00;;;2.40;99.90;;;;;;5048926;28;20877;-62
2021/12/07 11:33:51;;;;;;;51.30;29.67;;;2.40;99.90;;;;;;5047381;28;20832;-63
2021/12/07 11:36:23;;;;;;;49.10;28.07;;;2.40;99.90;;;;;;5053904;28;20483;-63
2021/12/07 11:38:53;;;;;;;52.57;30.23;;;2.50;99.90;;;;;;5053089;28;20482;-61
2021/12/07 11:41:25;;;;;;;54.07;30.47;;;2.50;99.90;;;;;;5045585;28;20588;-62
2021/12/07 11:44:00;;;;;;;49.67;29.63;;;2.50;99.90;;;;;;5045452;28;21021;-62
2021/12/07 11:46:30;;;;;;;49.37;28.57;;;2.50;99.90;;;;;;5046118;28;20482;-62
2021/12/07 11:49:11;;;;;;;50.40;28.93;;;2.50;99.90;;;;;;5050827;28;20478;-62
2021/12/07 11:51:41;;;;;;;49.30;28.60;;;2.50;99.90;;;;;;5040023;28;20561;-62
2021/12/07 11:54:12;;;;;;;50.77;28.70;;;2.70;99.90;;;;;;5038656;28;21002;-63
2021/12/07 11:56:40;;;;;;;56.33;29.63;;;2.60;99.90;;;;;;5039294;28;20472;-62
2021/12/07 11:59:10;;;;;;;52.23;28.40;;;2.70;99.90;;;;;;5039111;28;21092;-62
2021/12/07 12:01:45;;;;;;;51.90;29.43;;;2.60;99.90;;;;;;5040446;28;21066;-61
2021/12/07 12:04:14;;;;;;;47.37;27.57;;;2.70;99.90;;;;;;5039236;28;20480;-62
2021/12/07 12:06:43;;;;;;;51.87;28.30;;;2.60;99.90;;;;;;5040104;28;20585;-62
2021/12/07 12:09:13;;;;;;;50.10;27.63;;;2.70;99.90;;;;;;5040668;28;20917;-62
2021/12/07 12:11:50;;;;;;;48.30;27.60;;;2.70;99.90;;;;;;5044248;28;20478;-62
2021/12/07 12:14:46;;;;;;;49.37;28.40;;;2.70;99.90;;;;;;5050638;28;20516;-62
2021/12/07 12:17:19;;;;;;;50.20;29.73;;;2.70;99.90;;;;;;5045225;28;20588;-62
2021/12/07 12:20:03;;;;;;;49.67;27.33;;;2.70;99.90;;;;;;5051817;28;20562;-62
2021/12/07 12:22:35;;;;;;;48.60;27.57;;;2.70;99.90;;;;;;5040350;28;20589;-61
2021/12/07 12:25:10;;;;;;;47.67;27.50;;;2.70;99.90;;;;;;5051623;28;20592;-62
2021/12/07 12:27:42;;;;;;;46.03;27.23;;;2.80;99.90;;;;;;5033240;28;20511;-62
2021/12/07 12:30:20;;;;;;;45.30;27.07;;;2.80;99.90;;;;;;5047267;28;20947;-62
2021/12/07 12:32:54;;;;;;;46.47;27.30;;;2.80;99.90;;;;;;5039524;28;20523;-62
2021/12/07 12:35:30;;;;;;;48.33;27.50;;;2.80;99.90;;;;;;5046165;28;20562;-62
2021/12/07 12:38:00;;;;;;;47.20;27.10;;;2.80;99.90;;;;;;5051122;28;20558;-62
2021/12/07 12:40:31;;;;;;;46.83;27.53;;;2.80;99.90;;;;;;5050785;28;20473;-62
2021/12/07 12:43:02;;;;;;;47.03;27.37;;;2.80;99.90;;;;;;5050881;28;20532;-62
2021/12/07 12:45:35;;;;;;;46.97;27.07;;;2.80;99.90;;;;;;5047945;28;20503;-63
2021/12/07 12:48:06;;;;;;;47.57;28.93;;;2.80;99.90;;;;;;5054652;28;20566;-62
2021/12/07 12:50:36;;;;;;;45.00;27.30;;;2.80;99.90;;;;;;5044512;28;20988;-62
2021/12/07 12:53:08;;;;;;;49.03;27.73;;;2.80;99.90;;;;;;5046996;28;20561;-62
2021/12/07 12:55:46;;;;;;;47.60;27.47;;;2.80;99.90;;;;;;5050493;28;21065;-62
2021/12/07 12:58:18;;;;;;;42.47;26.53;;;2.80;99.90;;;;;;5051216;28;20484;-62
2021/12/07 13:01:07;;;;;;;47.50;28.57;;;2.80;99.90;;;;;;5044221;28;20822;-62
2021/12/07 13:04:02;;;;;;;45.70;28.07;;;2.80;99.90;;;;;;5046500;28;21124;-62
2021/12/07 13:06:54;;;;;;;48.40;27.27;;;2.90;99.90;;;;;;5031704;28;20489;-62
2021/12/07 13:09:35;;;;;;;46.33;27.30;;;2.90;99.90;;;;;;5033414;28;20605;-62
2021/12/07 13:12:08;;;;;;;44.60;26.97;;;2.90;99.90;;;;;;5034662;28;20490;-62
2021/12/07 13:14:44;;;;;;;47.73;27.67;;;2.90;99.90;;;;;;5035551;28;20954;-63
2021/12/07 13:17:22;;;;;;;48.83;28.20;;;2.90;99.90;;;;;;5029361;28;20487;-62
2021/12/07 13:20:16;;;;;;;42.60;26.87;;;2.90;99.90;;;;;;5033675;28;20868;-63
2021/12/07 13:22:47;;;;;;;46.97;27.83;;;2.90;99.90;;;;;;5035580;28;20493;-61
2021/12/07 13:25:18;;;;;;;48.63;29.10;;;2.90;99.90;;;;;;5035104;28;21131;-62
2021/12/07 13:28:14;;;;;;;47.47;28.03;;;2.80;99.90;;;;;;5031396;28;20493;-62
2021/12/07 13:31:11;;;;;;;47.83;29.20;;;2.80;99.90;;;;;;5034525;28;20489;-62
2021/12/07 13:33:41;;;;;;;49.67;27.77;;;2.80;99.90;;;;;;5035259;28;20487;-62
2021/12/07 13:36:33;;;;;;;47.93;28.47;;;2.90;99.90;;;;;;5031694;28;20576;-62
2021/12/07 13:39:27;;;;;;;48.03;28.60;;;2.80;99.90;;;;;;5034364;28;20524;-62
2021/12/07 13:42:00;;;;;;;51.40;30.07;;;2.90;99.90;;;;;;5034397;28;20701;-63
2021/12/07 13:44:31;;;;;;;46.60;29.67;;;2.80;99.90;;;;;;5033427;28;20555;-61
2021/12/07 13:47:02;;;;;;;52.67;31.70;;;2.80;99.90;;;;;;5031441;28;21020;-62
2021/12/07 13:49:32;;;;;;;50.63;30.90;;;2.80;99.90;;;;;;5034353;28;20875;-61
2021/12/07 13:52:00;;;;;;;49.33;30.43;;;2.90;99.90;;;;;;5034734;28;20488;-62
2021/12/07 13:54:28;;;;;;;49.03;29.83;;;2.90;99.90;;;;;;5034732;28;20485;-62
2021/12/07 13:56:57;;;;;;;46.10;28.10;;;2.90;99.90;;;;;;5035398;28;21407;-62
2021/12/07 13:59:27;;;;;;;47.93;28.90;;;2.90;99.90;;;;;;5038779;28;20482;-62
2021/12/07 14:01:58;;;;;;;47.90;28.33;;;2.90;99.90;;;;;;5037683;28;20476;-62
2021/12/07 14:04:28;;;;;;;47.30;28.87;;;2.90;99.90;;;;;;5038360;28;20486;-62
2021/12/07 14:06:59;;;;;;;46.97;28.10;;;2.90;99.90;;;;;;5033991;28;20817;-61
2021/12/07 14:09:27;;;;;;;43.43;27.03;;;2.90;99.90;;;;;;5037592;28;20489;-62
2021/12/07 14:11:57;;;;;;;40.87;24.70;;;2.90;99.90;;;;;;5038415;28;20486;-63
2021/12/07 14:14:26;;;;;;;44.43;27.80;;;2.90;99.90;;;;;;5051813;28;20474;-61
2021/12/07 14:16:59;;;;;;;42.23;26.90;;;2.90;99.90;;;;;;5052567;28;20865;-62
2021/12/07 14:19:27;;;;;;;45.97;27.07;;;2.90;99.90;;;;;;5052173;28;20845;-62